Time;durP1;ratioP1;P1;durP2;ratioP2;P2;SDS_P1;SDS_P2;PMS_P1;PMS_P2;Temp;Humidity;BMP_temperature;BMP_pressure;BME280_temperature;BME280_humidity;BME280_pressure;Samples;Min_cycle;Max_cycle;Signal;HPM_P1;HPM_P2
2023/03/18 00:00:41;;;;;;;3.45;1.25;;;14.30;68.60;;;;;;5005099;28;20033;-89
2023/03/18 00:03:07;;;;;;;2.85;0.98;;;14.30;68.60;;;;;;5003185;28;20026;-89
2023/03/18 00:05:34;;;;;;;2.70;1.42;;;14.30;68.60;;;;;;4997704;28;20093;-92
2023/03/18 00:08:03;;;;;;;3.00;1.42;;;14.30;68.60;;;;;;4987536;28;20041;-91
2023/03/18 00:10:30;;;;;;;3.40;1.42;;;14.30;68.70;;;;;;5005214;28;20030;-89
2023/03/18 00:12:57;;;;;;;4.13;1.35;;;14.30;68.70;;;;;;5000830;28;20133;-88
2023/03/18 00:15:23;;;;;;;4.63;1.40;;;14.30;68.70;;;;;;4987091;28;20069;-90
2023/03/18 00:17:49;;;;;;;6.03;1.70;;;14.30;68.70;;;;;;5000372;28;20026;-89
2023/03/18 00:20:17;;;;;;;4.95;1.35;;;14.20;68.60;;;;;;4986089;28;20022;-90
2023/03/18 00:22:49;;;;;;;5.40;1.10;;;14.20;68.60;;;;;;4991858;28;20030;-90
2023/03/18 00:25:17;;;;;;;6.10;1.60;;;14.20;68.70;;;;;;4990336;28;20073;-91
2023/03/18 00:27:44;;;;;;;4.53;1.65;;;14.20;68.70;;;;;;4989011;28;20062;-89
2023/03/18 00:30:12;;;;;;;3.28;1.05;;;14.10;68.50;;;;;;4993043;28;20041;-89
2023/03/18 00:32:38;;;;;;;2.25;1.40;;;14.10;68.60;;;;;;5006907;28;20034;-91
2023/03/18 00:35:06;;;;;;;3.78;1.75;;;14.10;68.70;;;;;;4989692;28;20031;-90
2023/03/18 00:37:34;;;;;;;5.57;1.80;;;14.10;68.70;;;;;;4976936;28;20093;-91
2023/03/18 00:40:05;;;;;;;4.78;1.58;;;14.10;68.70;;;;;;4989572;28;20422;-89
2023/03/18 00:42:37;;;;;;;2.38;1.05;;;14.10;68.70;;;;;;4971554;28;20498;-92
2023/03/18 00:45:10;;;;;;;4.30;1.13;;;14.10;68.80;;;;;;4984573;28;20449;-84
2023/03/18 00:47:37;;;;;;;2.58;0.95;;;14.10;68.80;;;;;;4985244;28;20548;-86
2023/03/18 00:50:06;;;;;;;5.30;1.40;;;14.00;68.70;;;;;;5003216;28;20880;-87
2023/03/18 00:52:35;;;;;;;3.05;1.38;;;14.00;68.70;;;;;;4969706;28;20046;-87
2023/03/18 00:55:01;;;;;;;2.58;1.00;;;14.00;68.80;;;;;;5002160;28;20038;-88
2023/03/18 00:57:29;;;;;;;2.03;1.20;;;14.00;68.80;;;;;;4986412;28;20030;-88
2023/03/18 01:00:01;;;;;;;2.97;0.90;;;14.00;68.90;;;;;;4991010;28;20041;-89
2023/03/18 01:02:28;;;;;;;3.80;1.80;;;14.00;68.90;;;;;;4987782;28;20037;-89
2023/03/18 01:04:55;;;;;;;2.15;0.90;;;14.00;68.90;;;;;;5004761;28;20038;-87
2023/03/18 01:07:23;;;;;;;2.97;0.88;;;13.90;68.80;;;;;;4994480;28;20077;-89
2023/03/18 01:09:49;;;;;;;1.55;1.15;;;13.90;69.40;;;;;;4990154;28;20041;-87
2023/03/18 01:12:22;;;;;;;2.25;1.35;;;13.90;68.90;;;;;;4991384;28;20027;-89
2023/03/18 01:14:49;;;;;;;2.72;1.08;;;13.90;68.90;;;;;;4992275;28;20049;-88
2023/03/18 01:17:15;;;;;;;2.65;0.70;;;13.90;68.90;;;;;;4996072;28;20033;-87
2023/03/18 01:19:41;;;;;;;3.55;1.20;;;13.80;68.70;;;;;;5008080;28;20035;-88
2023/03/18 01:22:07;;;;;;;4.38;1.48;;;13.80;68.70;;;;;;5011543;28;20042;-87
2023/03/18 01:24:40;;;;;;;4.72;1.05;;;13.80;68.80;;;;;;5005827;28;20074;-88
2023/03/18 01:27:06;;;;;;;3.65;1.40;;;13.80;69.00;;;;;;4980852;28;20034;-86
2023/03/18 01:29:34;;;;;;;2.60;0.90;;;13.80;68.90;;;;;;5017483;28;20048;-88
2023/03/18 01:32:01;;;;;;;4.28;0.98;;;13.70;68.70;;;;;;4995148;28;20064;-87
2023/03/18 01:34:29;;;;;;;4.15;1.38;;;13.70;68.80;;;;;;5010057;28;20602;-87
2023/03/18 01:36:56;;;;;;;3.08;1.23;;;13.70;68.90;;;;;;5007654;28;20381;-87
2023/03/18 01:39:25;;;;;;;2.28;1.00;;;13.70;68.90;;;;;;4972733;28;20031;-84
2023/03/18 01:41:51;;;;;;;2.05;0.90;;;13.70;69.00;;;;;;5006404;28;20558;-85
2023/03/18 01:44:26;;;;;;;2.75;1.30;;;13.70;69.00;;;;;;5005238;28;20049;-85
2023/03/18 01:46:55;;;;;;;4.00;1.05;;;13.70;69.00;;;;;;4984062;28;20046;-85
2023/03/18 01:49:41;;;;;;;4.35;2.25;;;13.70;69.00;;;;;;5011491;28;20041;-87
2023/03/18 01:52:11;;;;;;;4.28;1.40;;;13.70;69.10;;;;;;4984456;28;20121;-87
2023/03/18 01:54:44;;;;;;;2.25;1.20;;;13.70;69.00;;;;;;5003864;28;20117;-86
2023/03/18 01:57:16;;;;;;;2.28;1.10;;;13.70;69.10;;;;;;4999458;28;20394;-86
2023/03/18 01:59:43;;;;;;;3.28;1.40;;;13.70;69.10;;;;;;4999528;28;20045;-87
2023/03/18 02:02:15;;;;;;;0.93;0.85;;;13.70;69.10;;;;;;4976776;28;20405;-88
2023/03/18 02:04:46;;;;;;;3.13;1.38;;;13.70;69.10;;;;;;5005476;28;20034;-90
2023/03/18 02:07:19;;;;;;;2.42;0.80;;;13.70;69.10;;;;;;4990261;28;20042;-90
2023/03/18 02:09:48;;;;;;;3.03;1.00;;;13.60;69.00;;;;;;5006312;28;20037;-88
2023/03/18 02:12:17;;;;;;;6.22;1.02;;;13.60;69.00;;;;;;4981798;28;20046;-88
2023/03/18 02:14:44;;;;;;;4.57;1.25;;;13.60;69.10;;;;;;5002413;28;20069;-88
2023/03/18 02:17:16;;;;;;;3.90;1.55;;;13.60;69.20;;;;;;5002603;28;20356;-87
2023/03/18 02:19:53;;;;;;;4.47;1.00;;;13.60;69.20;;;;;;4983661;28;20035;-86
2023/03/18 02:22:33;;;;;;;5.65;1.05;;;13.50;69.10;;;;;;4993826;28;20026;-86
2023/03/18 02:25:18;;;;;;;2.65;0.85;;;13.50;69.20;;;;;;4986030;28;20109;-86
2023/03/18 02:27:49;;;;;;;1.27;0.68;;;13.50;69.30;;;;;;4973466;28;20027;-86
2023/03/18 02:30:26;;;;;;;2.70;0.88;;;13.50;69.30;;;;;;4996064;28;20524;-88
2023/03/18 02:32:56;;;;;;;4.75;1.15;;;13.40;69.20;;;;;;4998182;28;20037;-86
2023/03/18 02:35:25;;;;;;;1.95;0.80;;;13.40;69.20;;;;;;4973272;28;20532;-87
2023/03/18 02:37:52;;;;;;;4.00;0.75;;;13.40;69.70;;;;;;4966793;28;20033;-88
2023/03/18 02:40:25;;;;;;;4.95;0.90;;;13.40;69.30;;;;;;5000028;28;20042;-87
2023/03/18 02:42:56;;;;;;;3.28;1.30;;;13.40;69.90;;;;;;4987175;28;20064;-89
2023/03/18 02:45:57;;;;;;;5.95;2.42;;;13.40;69.40;;;;;;4988768;28;20553;-87
2023/03/18 02:48:27;;;;;;;3.55;2.35;;;13.30;69.30;;;;;;4955885;28;20049;-88
2023/03/18 02:50:56;;;;;;;3.13;0.90;;;13.40;69.50;;;;;;4965741;28;20081;-87
2023/03/18 02:53:22;;;;;;;3.53;1.30;;;13.40;69.50;;;;;;4989760;28;20037;-87
2023/03/18 02:55:48;;;;;;;2.35;1.00;;;13.40;69.50;;;;;;4989420;28;20042;-87
2023/03/18 02:58:14;;;;;;;2.75;0.70;;;13.30;69.40;;;;;;4971320;28;20265;-86
2023/03/18 03:00:41;;;;;;;3.47;1.00;;;13.30;69.40;;;;;;4989499;28;20347;-88
2023/03/18 03:03:07;;;;;;;4.15;0.82;;;13.30;69.40;;;;;;4990271;28;20038;-88
2023/03/18 03:05:34;;;;;;;3.20;1.40;;;13.30;69.40;;;;;;4990797;28;20492;-90
2023/03/18 03:08:00;;;;;;;7.20;1.60;;;13.30;69.40;;;;;;4990048;28;20397;-89
2023/03/18 03:10:29;;;;;;;3.08;1.08;;;13.30;69.50;;;;;;4989899;28;20038;-89
2023/03/18 03:12:57;;;;;;;2.45;1.00;;;13.30;69.60;;;;;;4996376;28;20053;-89
2023/03/18 03:15:23;;;;;;;4.03;1.25;;;13.20;69.50;;;;;;4989518;28;20038;-90
2023/03/18 03:17:54;;;;;;;4.43;1.50;;;13.20;69.50;;;;;;4973290;28;20042;-90
2023/03/18 03:20:20;;;;;;;4.30;1.10;;;13.20;69.60;;;;;;4993663;28;20677;-86
2023/03/18 03:22:47;;;;;;;2.60;1.00;;;13.20;69.60;;;;;;4990068;28;20030;-87
2023/03/18 03:25:16;;;;;;;2.75;1.17;;;13.20;69.60;;;;;;4977718;28;20305;-86
2023/03/18 03:27:44;;;;;;;3.97;0.98;;;13.20;69.60;;;;;;4987940;28;20335;-86
2023/03/18 03:30:12;;;;;;;3.30;1.23;;;13.10;69.50;;;;;;4988674;28;21042;-87
2023/03/18 03:32:39;;;;;;;3.17;1.00;;;13.10;69.50;;;;;;4985828;28;20422;-86
2023/03/18 03:35:07;;;;;;;2.72;1.33;;;13.10;69.60;;;;;;4986434;28;20238;-87
2023/03/18 03:37:36;;;;;;;3.25;1.08;;;13.10;69.60;;;;;;4973521;28;20057;-87
2023/03/18 03:40:04;;;;;;;3.25;1.50;;;13.10;69.60;;;;;;4990303;28;20049;-86
2023/03/18 03:42:31;;;;;;;3.45;2.17;;;13.00;69.50;;;;;;4990031;28;20133;-88
2023/03/18 03:44:59;;;;;;;5.55;1.20;;;13.00;69.60;;;;;;4990867;28;20126;-88
2023/03/18 03:47:26;;;;;;;3.90;1.20;;;13.00;69.60;;;;;;4990684;28;20163;-87
2023/03/18 03:49:52;;;;;;;5.40;1.95;;;13.00;69.60;;;;;;4996317;28;20425;-87
2023/03/18 03:52:19;;;;;;;3.70;1.73;;;13.00;69.60;;;;;;4990140;28;20076;-87
2023/03/18 03:54:47;;;;;;;3.22;1.23;;;13.00;69.70;;;;;;4989114;28;20036;-86
2023/03/18 03:57:13;;;;;;;6.05;2.65;;;13.00;69.70;;;;;;4988862;28;20379;-88
2023/03/18 03:59:39;;;;;;;6.22;1.52;;;13.00;69.70;;;;;;4973701;28;20557;-89
2023/03/18 04:02:16;;;;;;;1.95;1.02;;;13.00;69.80;;;;;;4990366;28;20040;-87
2023/03/18 04:04:45;;;;;;;5.45;1.40;;;12.90;69.60;;;;;;4994301;28;20045;-88
2023/03/18 04:07:21;;;;;;;5.47;1.35;;;13.00;69.80;;;;;;5008747;28;20478;-89
2023/03/18 04:09:51;;;;;;;6.63;1.58;;;13.00;69.80;;;;;;5007896;28;20036;-88
2023/03/18 04:12:19;;;;;;;6.25;1.30;;;13.00;69.80;;;;;;4991960;28;20073;-88
2023/03/18 04:14:55;;;;;;;6.10;2.47;;;13.00;69.80;;;;;;4989375;28;20030;-88
2023/03/18 04:17:22;;;;;;;4.80;1.30;;;12.90;69.60;;;;;;4992806;28;20044;-87
2023/03/18 04:19:48;;;;;;;4.45;2.05;;;12.90;69.70;;;;;;4971158;28;20444;-88
2023/03/18 04:22:17;;;;;;;11.30;1.77;;;12.80;69.50;;;;;;4986660;28;20557;-89
2023/03/18 04:24:43;;;;;;;7.22;2.42;;;12.90;69.70;;;;;;4985277;28;20026;-89
2023/03/18 04:27:10;;;;;;;4.25;1.33;;;12.80;69.60;;;;;;4984255;28;20077;-87
2023/03/18 04:29:38;;;;;;;7.88;2.35;;;12.80;69.70;;;;;;4980348;28;20050;-86
2023/03/18 04:32:05;;;;;;;3.78;1.25;;;12.80;69.70;;;;;;4984872;28;20118;-86
2023/03/18 04:34:32;;;;;;;6.20;1.38;;;12.80;69.70;;;;;;5004605;28;20214;-88
2023/03/18 04:36:58;;;;;;;7.88;1.95;;;12.70;69.60;;;;;;4993006;28;20026;-88
2023/03/18 04:39:27;;;;;;;7.00;1.90;;;12.70;69.70;;;;;;4990196;28;20069;-87
2023/03/18 04:41:55;;;;;;;2.20;0.95;;;12.70;69.80;;;;;;4988504;28;20497;-86
2023/03/18 04:44:23;;;;;;;7.18;1.90;;;12.70;69.80;;;;;;4988331;28;20212;-87
2023/03/18 04:46:52;;;;;;;4.85;1.80;;;12.70;69.80;;;;;;4989944;28;20034;-86
2023/03/18 04:49:24;;;;;;;3.30;1.63;;;12.70;69.80;;;;;;4995545;28;20525;-86
2023/03/18 04:51:53;;;;;;;5.28;1.40;;;12.70;69.80;;;;;;4978072;28;20057;-87
2023/03/18 04:54:29;;;;;;;6.05;1.83;;;12.70;69.80;;;;;;4994321;28;20478;-87
2023/03/18 04:56:58;;;;;;;5.60;1.70;;;12.70;69.80;;;;;;4979735;28;20037;-87
2023/03/18 04:59:29;;;;;;;6.43;1.90;;;12.70;69.80;;;;;;4994493;28;20518;-84
2023/03/18 05:01:56;;;;;;;5.93;1.52;;;12.70;69.80;;;;;;4978948;28;20085;-84
2023/03/18 05:04:24;;;;;;;4.97;1.50;;;12.70;69.80;;;;;;4995330;28;20117;-84
2023/03/18 05:06:55;;;;;;;6.53;2.00;;;12.70;69.80;;;;;;4989682;28;20042;-84
2023/03/18 05:09:30;;;;;;;7.88;2.53;;;12.70;69.90;;;;;;5013793;28;20113;-86
2023/03/18 05:11:57;;;;;;;5.57;1.48;;;12.70;69.80;;;;;;4990442;28;20038;-85
2023/03/18 05:14:28;;;;;;;8.38;2.05;;;12.70;69.90;;;;;;4979319;28;20042;-87
2023/03/18 05:16:56;;;;;;;7.53;2.15;;;12.70;70.40;;;;;;4992648;28;20038;-86
2023/03/18 05:19:24;;;;;;;8.18;2.42;;;12.70;69.90;;;;;;4991694;28;20039;-84
2023/03/18 05:22:09;;;;;;;5.90;2.45;;;12.70;69.90;;;;;;5006249;28;20035;-85
2023/03/18 05:24:35;;;;;;;6.20;1.73;;;12.70;69.90;;;;;;4984167;28;20558;-85
2023/03/18 05:27:03;;;;;;;4.97;1.63;;;12.70;69.90;;;;;;4974558;28;20065;-85
2023/03/18 05:29:39;;;;;;;5.47;1.60;;;12.70;69.90;;;;;;4995459;28;20676;-83
2023/03/18 05:32:13;;;;;;;7.80;2.17;;;12.70;70.00;;;;;;4994112;28;20046;-81
2023/03/18 05:34:40;;;;;;;7.70;1.45;;;12.70;70.00;;;;;;4976209;28;20059;-82
2023/03/18 05:37:10;;;;;;;6.05;1.40;;;12.70;70.00;;;;;;4995012;28;20462;-84
2023/03/18 05:39:44;;;;;;;6.10;1.95;;;12.70;70.00;;;;;;4979936;28;20464;-83
2023/03/18 05:42:13;;;;;;;7.15;1.25;;;12.70;70.00;;;;;;4984765;28;20042;-85
2023/03/18 05:44:39;;;;;;;7.03;1.65;;;12.70;70.10;;;;;;4978332;28;20092;-86
2023/03/18 05:47:12;;;;;;;3.03;1.60;;;12.70;70.10;;;;;;4994126;28;20482;-90
2023/03/18 05:49:51;;;;;;;7.57;1.65;;;12.70;70.10;;;;;;5001026;28;20054;-91
2023/03/18 05:52:20;;;;;;;3.90;1.58;;;12.70;70.10;;;;;;4997532;28;20214;-85
2023/03/18 05:54:49;;;;;;;3.55;1.33;;;12.70;70.10;;;;;;5000815;28;20034;-81
2023/03/18 05:57:20;;;;;;;4.38;1.40;;;12.70;70.20;;;;;;4984016;28;20072;-82
2023/03/18 05:59:48;;;;;;;5.78;1.85;;;12.70;70.10;;;;;;4986502;28;20109;-80
2023/03/18 06:02:15;;;;;;;4.75;1.40;;;12.70;70.20;;;;;;4993213;28;20073;-80
2023/03/18 06:04:41;;;;;;;4.10;1.42;;;12.70;70.20;;;;;;4995315;28;20438;-81
2023/03/18 06:07:07;;;;;;;3.13;1.15;;;12.70;70.20;;;;;;4987271;28;20579;-88
2023/03/18 06:09:39;;;;;;;7.75;2.17;;;12.70;70.30;;;;;;5002231;28;20077;-81
2023/03/18 06:12:06;;;;;;;3.17;1.52;;;12.70;70.30;;;;;;4985779;28;20042;-83
2023/03/18 06:14:32;;;;;;;4.65;1.10;;;12.70;70.30;;;;;;4996004;28;20050;-82
2023/03/18 06:17:00;;;;;;;5.60;1.40;;;12.70;70.40;;;;;;4988352;28;20602;-80
2023/03/18 06:19:29;;;;;;;2.88;1.20;;;12.60;70.20;;;;;;4990528;28;20468;-80
2023/03/18 06:21:55;;;;;;;4.20;1.30;;;12.70;70.40;;;;;;4987704;28;20038;-79
2023/03/18 06:24:23;;;;;;;5.75;1.80;;;12.70;70.50;;;;;;4991091;28;20116;-84
2023/03/18 06:26:50;;;;;;;5.65;1.55;;;12.70;70.50;;;;;;4994374;28;20486;-81
2023/03/18 06:29:17;;;;;;;4.38;1.58;;;12.60;70.40;;;;;;4996780;28;20129;-81
2023/03/18 06:31:43;;;;;;;4.72;1.67;;;12.60;70.40;;;;;;4989469;28;20046;-81
2023/03/18 06:34:13;;;;;;;5.45;1.25;;;12.70;70.60;;;;;;4992685;28;20033;-81
2023/03/18 06:36:40;;;;;;;4.70;1.80;;;12.70;70.60;;;;;;4998886;28;20034;-81
2023/03/18 06:39:14;;;;;;;5.07;2.10;;;12.70;70.70;;;;;;5000282;28;20050;-82
2023/03/18 06:41:42;;;;;;;4.88;1.15;;;12.70;70.70;;;;;;4995215;28;20034;-87
2023/03/18 06:44:30;;;;;;;6.22;2.20;;;12.70;70.70;;;;;;5010808;28;20034;-86
2023/03/18 06:47:04;;;;;;;5.93;2.15;;;12.70;70.60;;;;;;4980810;28;20044;-84
2023/03/18 06:49:34;;;;;;;3.97;1.30;;;12.70;70.50;;;;;;5009023;28;20062;-80
2023/03/18 06:52:13;;;;;;;4.80;1.40;;;12.70;70.50;;;;;;5004429;28;20050;-80
2023/03/18 06:54:40;;;;;;;7.53;2.00;;;12.80;70.70;;;;;;5008306;28;20108;-80
2023/03/18 06:57:07;;;;;;;6.32;2.42;;;12.80;70.60;;;;;;5004558;28;21037;-82
2023/03/18 06:59:35;;;;;;;4.35;1.65;;;12.90;70.80;;;;;;5001295;28;20031;-82
2023/03/18 07:02:04;;;;;;;6.35;1.73;;;12.90;70.70;;;;;;4987871;28;20036;-82
2023/03/18 07:04:32;;;;;;;7.15;2.13;;;13.00;70.90;;;;;;4996867;28;20022;-82
2023/03/18 07:06:59;;;;;;;8.48;2.40;;;13.00;71.00;;;;;;4989761;28;20426;-82
2023/03/18 07:09:27;;;;;;;5.55;1.52;;;13.10;71.40;;;;;;4995956;28;20026;-84
2023/03/18 07:11:57;;;;;;;4.63;1.80;;;13.20;71.60;;;;;;4992287;28;20034;-81
2023/03/18 07:14:23;;;;;;;5.32;1.98;;;13.30;71.60;;;;;;4986042;28;20030;-80
2023/03/18 07:16:50;;;;;;;8.05;2.25;;;13.40;71.60;;;;;;4983602;28;20036;-80
2023/03/18 07:19:18;;;;;;;5.43;1.70;;;13.50;71.70;;;;;;4993695;28;20042;-81
2023/03/18 07:21:45;;;;;;;5.53;2.28;;;13.50;71.60;;;;;;4988921;28;20535;-81
2023/03/18 07:24:11;;;;;;;5.55;1.65;;;13.60;71.70;;;;;;4990272;28;20041;-80
2023/03/18 07:26:37;;;;;;;5.63;1.40;;;13.60;71.50;;;;;;4987709;28;20198;-82
2023/03/18 07:29:04;;;;;;;5.13;1.85;;;13.70;71.60;;;;;;4987315;28;20034;-82
2023/03/18 07:31:30;;;;;;;6.68;2.85;;;13.80;71.60;;;;;;4980777;28;20037;-80
2023/03/18 07:33:56;;;;;;;6.85;1.90;;;13.80;71.50;;;;;;4986479;28;20034;-82
2023/03/18 07:36:24;;;;;;;7.57;1.77;;;13.90;71.50;;;;;;4984329;28;20045;-82
2023/03/18 07:38:50;;;;;;;5.95;1.77;;;14.00;71.60;;;;;;5015013;28;20057;-81
2023/03/18 07:41:16;;;;;;;5.18;1.70;;;14.10;71.60;;;;;;4990486;28;20034;-82
2023/03/18 07:43:42;;;;;;;6.50;2.20;;;14.20;71.60;;;;;;4991600;28;20140;-79
2023/03/18 07:46:08;;;;;;;8.88;2.65;;;14.30;71.50;;;;;;4976106;28;20124;-81
2023/03/18 07:48:34;;;;;;;8.50;3.55;;;14.40;71.60;;;;;;4988019;28;20372;-80
2023/03/18 07:51:01;;;;;;;12.68;3.38;;;14.50;71.40;;;;;;4975857;28;20038;-80
2023/03/18 07:53:27;;;;;;;9.38;1.85;;;14.60;71.60;;;;;;4989237;28;20034;-81
2023/03/18 07:55:54;;;;;;;7.75;2.55;;;14.70;71.40;;;;;;5003086;28;20042;-90
2023/03/18 07:58:20;;;;;;;10.00;2.53;;;14.80;71.40;;;;;;4994820;28;20030;-86
2023/03/18 08:00:46;;;;;;;9.85;3.10;;;14.90;71.50;;;;;;5006607;28;20037;-82
2023/03/18 08:03:13;;;;;;;10.00;2.63;;;15.00;72.00;;;;;;5004857;28;20125;-83
2023/03/18 08:05:39;;;;;;;12.43;2.30;;;15.20;72.30;;;;;;4989536;28;20041;-84
2023/03/18 08:08:08;;;;;;;10.57;3.00;;;15.30;72.20;;;;;;4985722;28;20547;-82
2023/03/18 08:10:35;;;;;;;11.30;2.25;;;15.50;72.30;;;;;;5001341;28;20027;-81
2023/03/18 08:13:02;;;;;;;9.30;2.38;;;15.60;72.30;;;;;;4998233;28;20022;-80
2023/03/18 08:15:28;;;;;;;11.65;3.30;;;15.70;72.30;;;;;;4994803;28;20030;-80
2023/03/18 08:17:54;;;;;;;7.78;3.17;;;15.70;72.20;;;;;;4980408;28;20040;-81
2023/03/18 08:20:21;;;;;;;9.75;2.03;;;15.80;72.40;;;;;;4991988;28;20054;-82
2023/03/18 08:22:50;;;;;;;10.48;2.38;;;15.90;72.50;;;;;;4983822;28;20068;-79
2023/03/18 08:25:16;;;;;;;9.90;2.80;;;16.10;72.70;;;;;;4991699;28;20034;-82
2023/03/18 08:27:43;;;;;;;9.02;2.70;;;16.10;72.40;;;;;;4988014;28;20057;-80
2023/03/18 08:30:09;;;;;;;7.78;1.70;;;16.30;72.50;;;;;;4977705;28;20033;-81
2023/03/18 08:32:37;;;;;;;7.15;2.50;;;16.40;72.40;;;;;;4992896;28;20033;-81
2023/03/18 08:35:05;;;;;;;8.73;3.00;;;16.40;72.20;;;;;;4985692;28;20030;-79
2023/03/18 08:37:31;;;;;;;10.07;2.55;;;16.50;72.20;;;;;;4990368;28;20258;-81
2023/03/18 08:39:57;;;;;;;7.07;2.75;;;16.60;72.20;;;;;;4989543;28;20312;-82
2023/03/18 08:42:23;;;;;;;5.90;1.63;;;16.70;72.20;;;;;;4986149;28;20519;-81
2023/03/18 08:44:49;;;;;;;6.85;1.50;;;16.80;72.20;;;;;;4988885;28;20045;-83
2023/03/18 08:47:15;;;;;;;6.18;1.88;;;16.80;72.10;;;;;;4988705;28;20050;-80
2023/03/18 08:49:41;;;;;;;8.02;2.15;;;16.90;72.10;;;;;;4995050;28;20411;-85
2023/03/18 08:52:07;;;;;;;8.63;2.03;;;17.10;72.30;;;;;;4986294;28;20037;-90
2023/03/18 08:54:34;;;;;;;6.50;1.63;;;17.20;72.30;;;;;;4992773;28;20100;-88
2023/03/18 08:57:00;;;;;;;7.07;1.83;;;17.40;72.30;;;;;;4996757;28;20046;-85
2023/03/18 08:59:26;;;;;;;11.68;1.98;;;17.70;72.40;;;;;;5012304;28;20057;-89
2023/03/18 09:01:52;;;;;;;13.82;2.75;;;18.00;72.30;;;;;;5004065;28;20034;-89
2023/03/18 09:04:19;;;;;;;7.57;1.55;;;18.20;72.20;;;;;;4987686;28;20018;-91
2023/03/18 09:06:45;;;;;;;6.30;1.75;;;18.40;72.00;;;;;;5000169;28;20136;-90
2023/03/18 09:09:11;;;;;;;8.90;1.40;;;18.50;71.60;;;;;;4988187;28;20069;-85
2023/03/18 09:11:38;;;;;;;3.40;1.20;;;18.70;71.40;;;;;;5001683;28;20453;-86
2023/03/18 09:14:04;;;;;;;7.00;2.05;;;18.90;71.30;;;;;;4997932;28;20030;-86
2023/03/18 09:16:31;;;;;;;4.10;1.45;;;19.00;71.10;;;;;;4989636;28;20030;-89
2023/03/18 09:18:57;;;;;;;8.02;2.90;;;19.10;70.90;;;;;;5001751;28;20033;-82
2023/03/18 09:21:23;;;;;;;5.05;2.67;;;19.30;71.00;;;;;;4997650;28;20525;-83
2023/03/18 09:23:51;;;;;;;13.32;5.38;;;19.50;70.90;;;;;;4996145;28;20429;-87
2023/03/18 09:26:18;;;;;;;11.05;4.53;;;19.60;70.70;;;;;;4990283;28;20419;-85
2023/03/18 09:28:46;;;;;;;7.72;3.97;;;19.80;70.60;;;;;;4991491;28;20056;-84
2023/03/18 09:31:14;;;;;;;6.10;2.40;;;19.90;70.30;;;;;;4993920;28;20042;-87
2023/03/18 09:33:41;;;;;;;7.47;2.85;;;20.10;70.10;;;;;;4959151;28;20043;-85
2023/03/18 09:36:08;;;;;;;9.80;3.22;;;20.30;70.00;;;;;;4996588;28;20409;-87
2023/03/18 09:38:38;;;;;;;6.53;2.40;;;20.40;69.60;;;;;;4997291;28;20061;-89
2023/03/18 09:41:28;;;;;;;8.27;2.58;;;20.60;69.50;;;;;;5005876;28;20038;-94
2023/03/18 09:44:24;;;;;;;8.48;2.80;;;20.80;69.40;;;;;;4986487;28;20034;-84
2023/03/18 09:47:22;;;;;;;6.57;2.30;;;21.00;69.40;;;;;;4989003;28;20046;-91
2023/03/18 09:49:48;;;;;;;9.32;3.42;;;21.10;69.70;;;;;;4977689;28;20073;-85
2023/03/18 09:52:27;;;;;;;5.55;2.17;;;21.20;69.20;;;;;;4989998;28;20034;-90
2023/03/18 09:55:22;;;;;;;5.38;3.05;;;21.20;68.90;;;;;;4986387;28;20038;-80
2023/03/18 09:57:51;;;;;;;6.13;2.65;;;21.20;68.50;;;;;;4994281;28;20525;-78
2023/03/18 10:00:21;;;;;;;7.55;2.10;;;21.20;68.40;;;;;;4991209;28;20034;-79
2023/03/18 10:02:58;;;;;;;6.00;1.70;;;21.20;68.70;;;;;;5000822;28;20073;-80
2023/03/18 10:05:33;;;;;;;6.93;2.63;;;21.20;67.90;;;;;;4985228;28;20053;-83
2023/03/18 10:08:11;;;;;;;7.95;2.58;;;21.10;67.50;;;;;;4982851;28;20496;-79
2023/03/18 10:10:44;;;;;;;6.55;1.60;;;21.10;67.40;;;;;;4987520;28;20042;-79
2023/03/18 10:13:21;;;;;;;;;;;21.10;67.20;;;;;;4973037;28;20042;-79
2023/03/18 10:15:56;;;;;;;7.60;1.88;;;21.10;67.10;;;;;;4992968;28;19918;-81
2023/03/18 10:18:31;;;;;;;5.88;2.08;;;21.20;67.10;;;;;;4990272;28;20083;-80
2023/03/18 10:21:03;;;;;;;7.07;1.50;;;21.40;67.00;;;;;;4982394;28;20080;-79
2023/03/18 10:23:34;;;;;;;4.70;1.83;;;21.50;66.90;;;;;;4996092;28;20113;-79
2023/03/18 10:26:11;;;;;;;5.95;1.67;;;21.60;66.80;;;;;;4985695;28;20043;-77
2023/03/18 10:29:01;;;;;;;3.78;1.20;;;21.50;66.50;;;;;;4993988;28;20441;-79
2023/03/18 10:31:39;;;;;;;6.10;2.40;;;21.50;66.30;;;;;;4995376;28;20034;-80
2023/03/18 10:34:20;;;;;;;4.75;1.70;;;21.40;66.30;;;;;;4991576;28;20838;-78
2023/03/18 10:37:11;;;;;;;4.53;1.30;;;21.30;66.40;;;;;;4987293;28;20108;-80
2023/03/18 10:39:38;;;;;;;6.50;1.85;;;21.10;66.00;;;;;;4996517;28;20411;-80
2023/03/18 10:42:21;;;;;;;3.33;1.27;;;21.00;66.30;;;;;;4986620;28;20034;-82
2023/03/18 10:44:47;;;;;;;3.83;1.55;;;20.80;65.80;;;;;;4997069;28;20540;-81
2023/03/18 10:47:18;;;;;;;3.20;1.42;;;20.70;66.10;;;;;;4991228;28;20527;-81
2023/03/18 10:50:32;;;;;;;4.43;1.05;;;20.70;66.10;;;;;;4988545;28;20053;-79
2023/03/18 10:53:24;;;;;;;2.78;1.40;;;20.70;65.70;;;;;;4991779;28;20088;-80
2023/03/18 10:55:57;;;;;;;2.67;1.07;;;20.80;65.90;;;;;;4998265;28;20053;-82
2023/03/18 10:58:23;;;;;;;5.45;1.50;;;20.90;65.80;;;;;;4980089;28;20037;-86
2023/03/18 11:00:50;;;;;;;2.17;1.17;;;20.90;65.60;;;;;;5002198;28;20288;-84
2023/03/18 11:03:24;;;;;;;4.97;1.67;;;20.80;65.30;;;;;;5002968;28;20289;-84
2023/03/18 11:05:51;;;;;;;1.90;1.08;;;20.80;65.00;;;;;;5001999;28;20046;-85
2023/03/18 11:08:35;;;;;;;4.28;1.00;;;20.70;65.10;;;;;;4995273;28;20892;-87
2023/03/18 11:11:27;;;;;;;4.45;1.83;;;20.60;65.00;;;;;;4997556;28;20072;-84
2023/03/18 11:14:00;;;;;;;2.38;1.23;;;20.50;64.80;;;;;;4986631;28;20456;-86
2023/03/18 11:16:56;;;;;;;3.58;1.65;;;20.50;65.10;;;;;;4994664;28;20410;-84
2023/03/18 11:19:36;;;;;;;2.17;1.27;;;20.40;64.90;;;;;;4985430;28;20580;-85
2023/03/18 11:22:14;;;;;;;4.10;1.42;;;20.30;64.90;;;;;;4987461;28;20282;-84
2023/03/18 11:24:44;;;;;;;2.13;1.33;;;20.30;65.00;;;;;;5001721;28;20045;-84
2023/03/18 11:27:13;;;;;;;5.13;1.75;;;20.40;65.20;;;;;;4985718;28;20046;-81
2023/03/18 11:29:55;;;;;;;2.67;1.30;;;20.40;64.90;;;;;;4987612;28;20022;-83
2023/03/18 11:32:30;;;;;;;3.20;1.10;;;20.50;64.70;;;;;;4986508;28;20034;-85
2023/03/18 11:35:01;;;;;;;2.80;0.98;;;20.50;64.60;;;;;;4984131;28;20107;-83
2023/03/18 11:37:35;;;;;;;3.67;0.98;;;20.60;64.70;;;;;;4988896;28;20556;-81
2023/03/18 11:40:13;;;;;;;4.25;1.35;;;20.60;64.60;;;;;;4995757;28;20493;-84
2023/03/18 11:42:41;;;;;;;1.65;0.88;;;20.60;64.60;;;;;;5004221;28;20026;-83
2023/03/18 11:45:25;;;;;;;3.25;1.20;;;20.60;64.70;;;;;;5004196;28;20037;-87
2023/03/18 11:47:52;;;;;;;3.40;1.00;;;20.60;64.40;;;;;;4996413;28;20049;-84
2023/03/18 11:50:25;;;;;;;1.10;0.73;;;20.60;64.60;;;;;;4987054;28;20062;-84
2023/03/18 11:53:15;;;;;;;3.72;1.15;;;20.60;64.60;;;;;;4985123;28;20317;-84
2023/03/18 11:55:55;;;;;;;3.28;1.23;;;20.60;64.60;;;;;;4997200;28;20033;-85
2023/03/18 11:58:31;;;;;;;3.50;1.50;;;20.70;64.70;;;;;;4999143;28;20054;-86
2023/03/18 12:01:09;;;;;;;3.63;1.50;;;20.70;64.40;;;;;;4988402;28;20098;-86
2023/03/18 12:03:56;;;;;;;2.78;1.42;;;20.80;64.40;;;;;;4988105;28;20049;-85
2023/03/18 12:06:27;;;;;;;5.50;1.80;;;20.80;64.40;;;;;;5003613;28;20220;-86
2023/03/18 12:09:15;;;;;;;3.47;1.13;;;20.80;64.30;;;;;;5009568;28;20046;-85
2023/03/18 12:11:49;;;;;;;2.08;0.80;;;20.90;64.30;;;;;;5008593;28;20039;-86
2023/03/18 12:14:31;;;;;;;2.72;1.15;;;20.90;64.20;;;;;;5003284;28;20033;-84
2023/03/18 12:17:09;;;;;;;7.07;1.90;;;20.90;64.20;;;;;;4999649;28;20042;-84
2023/03/18 12:20:08;;;;;;;9.55;3.20;;;21.00;64.60;;;;;;4996634;28;20057;-85
2023/03/18 12:23:01;;;;;;;10.60;4.38;;;21.20;65.60;;;;;;4998357;28;20030;-84
2023/03/18 12:25:39;;;;;;;9.05;4.10;;;21.40;66.20;;;;;;4982492;28;20482;-87
2023/03/18 12:28:18;;;;;;;14.63;10.00;;;21.60;67.10;;;;;;5000797;28;20037;-85
2023/03/18 12:31:13;;;;;;;12.48;7.93;;;21.90;68.20;;;;;;4979013;28;20038;-86
2023/03/18 12:33:56;;;;;;;12.07;6.68;;;22.20;69.20;;;;;;4982501;28;20049;-83
2023/03/18 12:36:50;;;;;;;9.85;6.43;;;22.30;69.00;;;;;;4985491;28;20038;-85
2023/03/18 12:39:39;;;;;;;8.73;5.97;;;22.50;69.00;;;;;;4995545;28;20556;-83
2023/03/18 12:42:12;;;;;;;6.40;4.32;;;22.60;68.90;;;;;;4968281;28;20228;-86
2023/03/18 12:44:56;;;;;;;12.25;5.35;;;22.70;68.70;;;;;;4986340;28;20062;-89
2023/03/18 12:47:31;;;;;;;12.68;4.35;;;22.70;68.30;;;;;;5001653;28;20501;-87
2023/03/18 12:49:59;;;;;;;4.80;3.72;;;22.70;68.30;;;;;;4966390;28;20062;-87
2023/03/18 12:52:51;;;;;;;6.32;3.30;;;22.70;68.20;;;;;;4997985;28;21014;-89
2023/03/18 12:55:35;;;;;;;5.10;3.10;;;22.70;67.90;;;;;;4991855;28;20038;-91
2023/03/18 12:58:18;;;;;;;5.13;2.55;;;22.80;68.00;;;;;;4970521;28;20026;-90
2023/03/18 13:01:16;;;;;;;7.22;3.58;;;23.00;67.90;;;;;;4985473;28;20114;-91
2023/03/18 13:03:46;;;;;;;4.90;2.38;;;23.10;67.70;;;;;;4982772;28;20117;-90
2023/03/18 13:06:19;;;;;;;6.38;2.55;;;23.20;67.60;;;;;;4986048;28;20130;-90